Youngsville, New Mexico
Current Conditions -  °F | °C
As of 4:15 AM on Tuesday 21 Oct 2014 (Local Time) from KLAM Reporting Station
Broken Clouds Broken Clouds  
Wind Chill: 46°   Ceiling: 6500
Heat Index: 48°   Visibility: 10mi
Dew Point: 44°   Wind: 5mph
Humidity: 85%   Direction: 190°S
Pressure: 30.23"   Gusts: NA
Location:  36.19°N, 106.56°W
Report Text: KLAM 211015Z AUTO 19004KT 10SM BKN065 09/07 A3023 RMK AO2 T00890065
Loading
Personal Weather Stations






























Interactive Weather Map
Tropical Storm Tracking
New forecast layout! Learn more

10-Day Weather Forecast

Advertisements
Track Severe Weather on mobile